createdAt,value
2018-05-17T00:00:26.617Z,31.33
2018-05-17T00:08:51.511Z,28.80
2018-05-17T00:11:18.989Z,27.30
2018-05-17T00:13:46.473Z,27.40
2018-05-17T00:16:13.947Z,24.17
2018-05-17T00:18:41.443Z,24.47
2018-05-17T00:21:08.943Z,27.33
2018-05-17T00:23:36.411Z,24.40
2018-05-17T00:26:03.891Z,29.43
2018-05-17T00:28:31.354Z,25.03
2018-05-17T00:30:58.861Z,23.93
2018-05-17T00:33:26.371Z,23.63
2018-05-17T00:35:53.908Z,25.57
2018-05-17T00:38:21.425Z,23.10
2018-05-17T00:40:48.997Z,30.70
2018-05-17T00:43:16.490Z,25.10
2018-05-17T00:45:43.996Z,28.03
2018-05-17T00:48:11.492Z,24.03
2018-05-17T00:50:38.960Z,27.63
2018-05-17T00:53:18.250Z,29.00
2018-05-17T00:55:45.720Z,26.00
2018-05-17T00:58:13.266Z,34.63
2018-05-17T01:00:40.745Z,38.73
2018-05-17T01:03:08.230Z,42.37
2018-05-17T01:13:56.224Z,42.27
2018-05-17T01:16:24.414Z,39.30
2018-05-17T01:21:42.063Z,48.70
2018-05-17T01:41:13.920Z,39.43
2018-05-17T01:46:33.800Z,43.43
2018-05-17T01:49:01.272Z,38.00
2018-05-17T01:51:28.768Z,41.57
2018-05-17T01:53:56.248Z,40.40
2018-05-17T01:56:23.717Z,45.03
2018-05-17T01:58:51.197Z,41.60
2018-05-17T02:01:18.703Z,43.30
2018-05-17T02:03:46.185Z,40.83
2018-05-17T02:34:40.217Z,47.93
2018-05-17T02:37:07.690Z,48.00
2018-05-17T02:39:35.200Z,48.27
2018-05-17T02:44:53.140Z,51.33
2018-05-17T03:04:25.058Z,59.37
2018-05-17T03:23:57.439Z,55.23
2018-05-17T03:37:47.398Z,56.90
2018-05-17T03:40:15.765Z,57.20
2018-05-17T03:42:43.245Z,57.63
2018-05-17T03:45:10.797Z,53.57
2018-05-17T03:47:38.264Z,54.93
2018-05-17T03:50:05.731Z,56.10
2018-05-17T03:52:33.203Z,54.47
2018-05-17T03:55:00.684Z,49.83
2018-05-17T03:57:28.177Z,53.90
2018-05-17T03:59:55.657Z,54.17
2018-05-17T04:02:34.831Z,50.60
2018-05-17T04:05:14.171Z,54.90
2018-05-17T04:07:41.647Z,59.00
2018-05-17T04:10:09.121Z,47.10
2018-05-17T04:12:36.590Z,50.10
2018-05-17T04:15:04.091Z,45.23
2018-05-17T04:17:31.581Z,45.23
2018-05-17T04:19:59.054Z,51.13
2018-05-17T04:22:26.558Z,58.23
2018-05-17T04:24:54.076Z,48.43
2018-05-17T04:27:21.551Z,47.30
2018-05-17T04:29:49.045Z,57.87
2018-05-17T04:32:16.525Z,58.63
2018-05-17T04:34:44.016Z,51.73
2018-05-17T04:37:11.514Z,47.10
2018-05-17T04:39:38.993Z,42.83
2018-05-17T04:42:06.488Z,44.17
2018-05-17T04:44:33.974Z,44.67
2018-05-17T04:47:01.479Z,39.40
2018-05-17T04:49:28.955Z,42.70
2018-05-17T04:51:56.465Z,39.47
2018-05-17T04:54:24.215Z,38.10
2018-05-17T04:56:51.708Z,37.90
2018-05-17T04:59:19.187Z,42.63
2018-05-17T05:01:46.668Z,36.67
2018-05-17T05:04:14.458Z,41.70
2018-05-17T05:06:42.236Z,42.63
2018-05-17T05:09:09.724Z,33.20
2018-05-17T05:11:37.201Z,35.03
2018-05-17T05:14:04.689Z,34.67
2018-05-17T05:16:32.185Z,32.33
2018-05-17T05:18:59.690Z,39.70
2018-05-17T05:21:28.028Z,35.83
2018-05-17T05:23:55.514Z,34.40
2018-05-17T05:26:23.002Z,30.70
2018-05-17T05:28:50.473Z,34.10
2018-05-17T05:31:17.984Z,33.33
2018-05-17T05:33:45.464Z,38.23
2018-05-17T05:36:12.941Z,38.73
2018-05-17T05:38:40.423Z,37.87
2018-05-17T05:41:07.894Z,40.00
2018-05-17T05:43:35.374Z,41.00
2018-05-17T05:46:02.847Z,32.10
2018-05-17T05:48:30.327Z,37.70
2018-05-17T05:50:57.811Z,40.27
2018-05-17T05:53:25.286Z,38.03
2018-05-17T05:55:52.787Z,39.07
2018-05-17T05:58:20.276Z,43.50
2018-05-17T06:00:47.745Z,40.27
2018-05-17T06:03:15.219Z,42.30
2018-05-17T06:05:42.697Z,39.17
2018-05-17T06:08:10.192Z,47.33
2018-05-17T06:10:37.682Z,41.50
2018-05-17T06:13:05.153Z,44.93
2018-05-17T06:15:33.339Z,53.40
2018-05-17T06:18:00.816Z,43.73
2018-05-17T06:20:28.333Z,50.13
2018-05-17T06:22:55.841Z,47.10
2018-05-17T06:25:23.337Z,50.40
2018-05-17T06:27:50.807Z,47.27
2018-05-17T06:30:23.193Z,52.00
2018-05-17T06:32:50.753Z,58.13
2018-05-17T06:35:18.225Z,51.30
2018-05-17T06:37:45.726Z,54.10
2018-05-17T06:40:13.191Z,52.03
2018-05-17T06:48:22.718Z,59.60
2018-05-17T06:50:50.217Z,58.90
2018-05-17T06:53:17.784Z,50.87
2018-05-17T06:55:45.253Z,60.80
2018-05-17T06:58:12.733Z,52.00
2018-05-17T07:00:40.232Z,53.73
2018-05-17T07:03:08.736Z,59.00
2018-05-17T07:05:36.256Z,54.27
2018-05-17T07:08:03.738Z,53.47
2018-05-17T07:10:31.275Z,61.90
2018-05-17T07:12:58.739Z,61.87
2018-05-17T07:15:26.228Z,57.57
2018-05-17T07:17:53.810Z,60.97
2018-05-17T07:20:21.203Z,69.30
2018-05-17T07:22:48.685Z,67.40
2018-05-17T07:25:16.135Z,72.33
2018-05-17T07:27:43.610Z,70.93
2018-05-17T07:33:19.512Z,65.67
2018-05-17T07:35:46.990Z,66.93
2018-05-17T08:09:38.892Z,64.00
2018-05-17T08:12:06.369Z,46.40
2018-05-17T08:14:33.865Z,51.43
2018-05-17T08:17:01.333Z,57.10
2018-05-17T08:19:28.811Z,49.03
2018-05-17T08:21:56.303Z,54.93
2018-05-17T08:24:23.774Z,66.03
2018-05-17T08:27:04.281Z,59.10
2018-05-17T08:29:31.775Z,54.53
2018-05-17T08:40:31.399Z,58.83
2018-05-17T08:42:58.886Z,70.93
2018-05-17T08:45:26.365Z,54.97
2018-05-17T08:47:53.845Z,57.47
2018-05-17T08:50:21.330Z,54.90
2018-05-17T08:52:48.809Z,60.03
2018-05-17T08:55:16.292Z,58.27
2018-05-17T08:57:43.773Z,70.17
2018-05-17T09:00:11.271Z,56.73
2018-05-17T09:02:38.765Z,59.17
2018-05-17T09:05:06.245Z,71.67
2018-05-17T09:07:33.716Z,74.07
2018-05-17T09:10:01.188Z,56.20
2018-05-17T09:12:28.670Z,53.60
2018-05-17T09:14:56.144Z,62.67
2018-05-17T09:17:23.653Z,53.87
2018-05-17T09:19:51.113Z,56.27
2018-05-17T09:22:18.619Z,58.23
2018-05-17T09:24:46.551Z,60.33
2018-05-17T09:27:14.025Z,64.53
2018-05-17T09:29:41.584Z,59.03
2018-05-17T09:32:09.071Z,57.97
2018-05-17T09:34:36.584Z,62.93
2018-05-17T09:37:04.062Z,58.07
2018-05-17T09:39:31.534Z,62.20
2018-05-17T09:41:59.022Z,62.83
2018-05-17T09:44:26.509Z,54.27
2018-05-17T09:46:53.996Z,66.83
2018-05-17T09:49:21.493Z,59.77
2018-05-17T09:51:48.989Z,67.73
2018-05-17T09:54:16.452Z,57.47
2018-05-17T09:56:43.953Z,54.47
2018-05-17T09:59:11.451Z,60.63
2018-05-17T10:01:38.941Z,51.40
2018-05-17T10:04:06.428Z,63.93
2018-05-17T10:06:33.917Z,69.77
2018-05-17T10:09:01.383Z,55.17
2018-05-17T10:11:28.852Z,55.50
2018-05-17T10:13:56.347Z,56.30
2018-05-17T10:16:23.821Z,67.87
2018-05-17T10:18:51.323Z,50.90
2018-05-17T10:21:18.804Z,62.00
2018-05-17T10:23:46.368Z,51.43
2018-05-17T10:26:13.880Z,56.77
2018-05-17T10:28:41.354Z,57.53
2018-05-17T10:31:08.833Z,52.67
2018-05-17T10:33:36.312Z,49.80
2018-05-17T10:36:03.793Z,51.30
2018-05-17T10:38:31.314Z,62.33
2018-05-17T10:40:58.789Z,64.87
2018-05-17T10:43:26.254Z,50.37
2018-05-17T10:45:53.738Z,50.63
2018-05-17T10:48:21.220Z,54.57
2018-05-17T10:50:48.738Z,51.33
2018-05-17T10:53:16.212Z,48.20
2018-05-17T10:55:43.690Z,63.13
2018-05-17T10:58:11.211Z,45.80
2018-05-17T11:00:38.687Z,50.40
2018-05-17T11:03:06.176Z,52.27
2018-05-17T11:05:33.656Z,50.50
2018-05-17T11:08:01.133Z,60.77
2018-05-17T11:10:28.636Z,48.10
2018-05-17T11:12:56.127Z,51.30
2018-05-17T11:15:23.693Z,65.53
2018-05-17T11:17:51.205Z,54.87
2018-05-17T11:20:18.683Z,52.37
2018-05-17T11:22:46.212Z,55.23
2018-05-17T11:25:13.691Z,60.53
2018-05-17T11:27:41.167Z,49.73
2018-05-17T11:30:08.645Z,46.17
2018-05-17T11:32:36.118Z,52.90
2018-05-17T11:35:03.597Z,52.33
2018-05-17T11:37:31.073Z,51.37
2018-05-17T11:39:58.562Z,58.77
2018-05-17T11:42:26.038Z,49.40
2018-05-17T11:44:53.561Z,51.53
2018-05-17T11:47:21.033Z,41.27
2018-05-17T11:49:48.580Z,46.87
2018-05-17T11:52:16.082Z,42.67
2018-05-17T11:54:43.561Z,43.33
2018-05-17T11:57:11.044Z,47.17
2018-05-17T11:59:38.615Z,39.70
2018-05-17T12:02:06.123Z,51.43
2018-05-17T12:04:33.710Z,48.90
2018-05-17T12:07:01.184Z,47.20
2018-05-17T12:09:28.669Z,63.33
2018-05-17T12:11:56.139Z,51.33
2018-05-17T12:14:23.616Z,48.73
2018-05-17T12:19:24.940Z,49.87
2018-05-17T12:21:52.416Z,46.30
2018-05-17T12:24:20.366Z,44.57
2018-05-17T12:26:47.893Z,50.33
2018-05-17T12:29:15.368Z,44.90
2018-05-17T12:31:43.019Z,37.67
2018-05-17T12:34:10.446Z,39.77
2018-05-17T12:36:37.927Z,40.90
2018-05-17T12:39:06.238Z,50.00
2018-05-17T12:41:33.802Z,36.70
2018-05-17T12:44:01.288Z,42.07
2018-05-17T12:46:28.777Z,48.80
2018-05-17T12:48:56.273Z,43.90
2018-05-17T12:51:23.787Z,43.23
2018-05-17T12:53:51.253Z,40.00
2018-05-17T12:56:18.731Z,46.67
2018-05-17T12:58:46.313Z,37.90
2018-05-17T13:01:15.287Z,34.93
2018-05-17T13:03:43.302Z,39.60
2018-05-17T13:06:10.816Z,35.50
2018-05-17T13:08:38.283Z,45.00
2018-05-17T13:11:05.747Z,38.03
2018-05-17T13:13:33.227Z,40.13
2018-05-17T13:16:00.709Z,47.47
2018-05-17T13:18:28.180Z,40.87
2018-05-17T13:20:55.684Z,41.43
2018-05-17T13:23:23.202Z,40.93
2018-05-17T13:25:50.688Z,33.70
2018-05-17T13:28:18.178Z,38.20
2018-05-17T13:30:45.688Z,30.47
2018-05-17T13:33:13.164Z,32.90
2018-05-17T13:35:40.645Z,36.30
2018-05-17T13:38:08.118Z,34.70
2018-05-17T13:40:36.191Z,40.70
2018-05-17T13:43:03.692Z,52.60
2018-05-17T13:45:31.291Z,40.87
2018-05-17T13:47:58.792Z,36.93
2018-05-17T13:50:26.252Z,33.90
2018-05-17T13:52:53.731Z,33.60
2018-05-17T13:55:21.199Z,33.27
2018-05-17T13:57:48.691Z,42.37
2018-05-17T14:00:16.191Z,30.03
2018-05-17T14:02:43.770Z,33.40
2018-05-17T14:05:11.169Z,35.73
2018-05-17T14:07:38.658Z,44.00
2018-05-17T14:10:06.130Z,44.77
2018-05-17T14:12:33.665Z,32.93
2018-05-17T14:15:01.128Z,31.83
2018-05-17T14:17:28.612Z,28.70
2018-05-17T14:19:59.040Z,34.53
2018-05-17T14:22:28.044Z,32.77
2018-05-17T14:24:56.989Z,37.47
2018-05-17T14:27:24.932Z,35.50
2018-05-17T14:29:53.446Z,38.20
2018-05-17T14:41:10.225Z,36.57
2018-05-17T14:43:37.700Z,27.40
2018-05-17T14:46:07.197Z,35.70
2018-05-17T14:48:35.214Z,35.53
2018-05-17T14:51:04.309Z,32.43
2018-05-17T14:53:32.036Z,35.57
2018-05-17T14:55:59.624Z,40.80
2018-05-17T14:58:27.669Z,27.40
2018-05-17T15:00:55.322Z,41.83
2018-05-17T15:03:22.824Z,31.43
2018-05-17T15:05:50.304Z,30.73
2018-05-17T15:08:17.788Z,35.97
2018-05-17T15:10:45.302Z,27.63
2018-05-17T15:13:16.032Z,25.23
2018-05-17T15:15:45.822Z,36.07
2018-05-17T15:18:14.307Z,33.57
2018-05-17T15:20:42.632Z,36.50
2018-05-17T15:23:10.089Z,29.40
2018-05-17T15:25:37.986Z,25.63
2018-05-17T15:51:08.282Z,34.10
2018-05-17T15:53:37.771Z,29.77
2018-05-17T15:56:05.283Z,26.03
2018-05-17T15:58:32.760Z,35.10
2018-05-17T16:01:00.440Z,28.17
2018-05-17T16:03:28.071Z,29.43
2018-05-17T16:20:22.036Z,28.17
2018-05-17T16:39:55.132Z,20.30
2018-05-17T16:42:22.600Z,23.13
2018-05-17T16:44:50.099Z,23.73
2018-05-17T16:47:17.568Z,21.90
2018-05-17T16:49:45.028Z,15.40
2018-05-17T16:52:12.491Z,16.10
2018-05-17T17:00:20.743Z,20.13
2018-05-17T17:02:48.264Z,16.90
2018-05-17T17:05:15.763Z,30.67
2018-05-17T17:07:43.287Z,21.60
2018-05-17T17:10:10.864Z,28.97
2018-05-17T17:12:38.729Z,27.67
2018-05-17T17:15:10.636Z,24.90
2018-05-17T17:17:40.904Z,21.17
2018-05-17T17:20:08.586Z,24.07
2018-05-17T17:22:36.096Z,19.90
2018-05-17T17:25:03.666Z,26.60
2018-05-17T17:27:31.165Z,26.73
2018-05-17T17:29:58.684Z,19.97
2018-05-17T17:32:26.174Z,22.00
2018-05-17T17:34:53.704Z,23.03
2018-05-17T17:37:21.195Z,30.27
2018-05-17T17:39:48.745Z,21.37
2018-05-17T17:42:16.230Z,18.17
2018-05-17T17:44:43.733Z,36.33
2018-05-17T17:47:11.222Z,28.17
2018-05-17T17:49:38.778Z,22.40
2018-05-17T17:52:06.269Z,26.03
2018-05-17T17:54:33.797Z,29.93
2018-05-17T17:57:01.303Z,25.03
2018-05-17T17:59:29.421Z,26.17
2018-05-17T18:01:59.723Z,26.00
2018-05-17T18:04:29.538Z,24.83
2018-05-17T18:06:59.975Z,29.13
2018-05-17T18:09:28.636Z,23.73
2018-05-17T18:11:57.262Z,24.93
2018-05-17T18:14:24.907Z,40.73
2018-05-17T18:16:52.625Z,32.37
2018-05-17T18:19:22.372Z,26.20
2018-05-17T18:21:50.092Z,23.33
2018-05-17T18:24:18.056Z,26.73
2018-05-17T18:26:45.908Z,31.07
2018-05-17T18:29:13.581Z,35.47
2018-05-17T18:31:41.821Z,33.47
2018-05-17T18:34:09.370Z,37.07
2018-05-17T18:36:36.886Z,27.90
2018-05-17T18:39:04.526Z,33.23
2018-05-17T18:41:32.027Z,35.70
2018-05-17T18:43:59.565Z,35.23
2018-05-17T18:46:27.071Z,40.13
2018-05-17T18:48:54.617Z,28.13
2018-05-17T18:51:22.103Z,33.90
2018-05-17T18:53:49.661Z,36.13
2018-05-17T18:56:17.167Z,31.63
2018-05-17T18:58:44.684Z,37.63
2018-05-17T19:01:12.192Z,41.07
2018-05-17T19:03:39.695Z,40.73
2018-05-17T19:06:07.399Z,42.20
2018-05-17T19:08:34.921Z,31.90
2018-05-17T19:11:02.414Z,43.27
2018-05-17T19:13:29.930Z,40.57
2018-05-17T19:15:57.546Z,45.50
2018-05-17T19:18:25.046Z,39.30
2018-05-17T19:20:53.180Z,43.63
2018-05-17T19:23:20.680Z,39.87
2018-05-17T19:25:48.283Z,38.33
2018-05-17T19:28:15.725Z,36.73
2018-05-17T19:30:43.231Z,38.83
2018-05-17T19:33:10.742Z,45.43
2018-05-17T19:35:38.271Z,40.83
2018-05-17T19:38:05.777Z,41.60
2018-05-17T19:40:33.283Z,42.50
2018-05-17T19:43:00.785Z,39.77
2018-05-17T19:45:28.306Z,36.43
2018-05-17T19:47:55.827Z,42.40
2018-05-17T19:50:23.350Z,43.47
2018-05-17T19:52:50.884Z,43.33
2018-05-17T19:55:18.392Z,45.73
2018-05-17T19:57:45.890Z,45.63
2018-05-17T20:00:13.384Z,57.37
2018-05-17T20:02:40.920Z,43.90
2018-05-17T20:05:08.416Z,38.60
2018-05-17T20:07:35.949Z,44.87
2018-05-17T20:10:03.453Z,42.90
2018-05-17T20:12:30.965Z,49.90
2018-05-17T20:14:58.463Z,39.77
2018-05-17T20:17:25.973Z,48.03
2018-05-17T20:19:53.468Z,39.00
2018-05-17T20:22:20.966Z,30.17
2018-05-17T20:24:48.449Z,36.57
2018-05-17T20:27:15.962Z,46.33
2018-05-17T20:29:43.478Z,40.00
2018-05-17T20:32:10.988Z,46.70
2018-05-17T20:34:38.509Z,53.67
2018-05-17T20:37:07.030Z,51.57
2018-05-17T20:39:37.546Z,54.60
2018-05-17T20:42:06.368Z,42.93
2018-05-17T20:44:34.102Z,45.93
2018-05-17T20:47:01.597Z,46.67
2018-05-17T20:49:29.102Z,51.33
2018-05-17T20:51:56.594Z,56.60
2018-05-17T20:54:24.082Z,50.67
2018-05-17T20:56:51.621Z,49.90
2018-05-17T20:59:19.121Z,48.80
2018-05-17T21:01:46.627Z,46.70
2018-05-17T21:04:14.123Z,47.63
2018-05-17T21:06:41.646Z,50.23
2018-05-17T21:09:09.146Z,42.93
2018-05-17T21:11:38.812Z,36.50
2018-05-17T21:14:06.432Z,44.20
2018-05-17T21:16:33.937Z,44.57
2018-05-17T21:19:01.432Z,40.43
2018-05-17T21:21:28.921Z,53.10
2018-05-17T21:23:56.417Z,48.20
2018-05-17T21:26:24.167Z,50.63
2018-05-17T21:28:51.663Z,55.03
2018-05-17T21:31:19.161Z,47.00
2018-05-17T21:33:46.694Z,51.40
2018-05-17T21:36:14.194Z,43.93
2018-05-17T21:38:41.682Z,44.60
2018-05-17T21:41:09.181Z,51.43
2018-05-17T21:43:36.671Z,43.17
2018-05-17T21:46:04.174Z,65.53
2018-05-17T21:48:31.680Z,50.97
2018-05-17T21:50:59.298Z,49.17
2018-05-17T21:53:26.810Z,50.50
2018-05-17T21:55:54.318Z,60.00
2018-05-17T21:58:21.848Z,43.03
2018-05-17T22:00:49.345Z,59.93
2018-05-17T22:03:16.856Z,63.33
2018-05-17T22:05:44.457Z,50.67
2018-05-17T22:08:12.727Z,49.30
2018-05-17T22:10:40.247Z,53.17
2018-05-17T22:13:07.770Z,59.90
2018-05-17T22:15:35.285Z,55.63
2018-05-17T22:18:02.798Z,60.77
2018-05-17T22:20:30.294Z,53.83
2018-05-17T22:22:57.772Z,52.07
2018-05-17T22:25:25.265Z,60.37
2018-05-17T22:27:52.787Z,61.20
2018-05-17T22:30:20.294Z,50.50
2018-05-17T22:32:47.808Z,64.60
2018-05-17T22:35:15.338Z,59.77
2018-05-17T22:37:42.859Z,57.87
2018-05-17T22:40:10.366Z,58.73
2018-05-17T22:42:37.902Z,50.60
2018-05-17T22:45:05.408Z,60.60
2018-05-17T22:47:32.884Z,57.63
2018-05-17T22:50:00.400Z,53.73
2018-05-17T22:52:27.887Z,61.13
2018-05-17T22:54:55.402Z,65.67
2018-05-17T22:57:34.804Z,77.27
2018-05-17T23:00:02.300Z,59.77
2018-05-17T23:02:29.817Z,57.87
2018-05-17T23:04:57.320Z,66.40
2018-05-17T23:07:24.817Z,66.73
2018-05-17T23:09:52.325Z,69.90
2018-05-17T23:12:19.829Z,61.93
2018-05-17T23:14:47.359Z,70.20
2018-05-17T23:17:14.866Z,66.30
2018-05-17T23:19:42.384Z,67.97
2018-05-17T23:22:09.905Z,63.73
2018-05-17T23:24:37.414Z,63.27
2018-05-17T23:27:04.909Z,61.00
2018-05-17T23:29:32.430Z,61.93
2018-05-17T23:31:59.970Z,75.37
2018-05-17T23:34:27.549Z,61.60
2018-05-17T23:36:55.053Z,53.37
2018-05-17T23:39:22.544Z,57.43
2018-05-17T23:41:50.076Z,63.20
2018-05-17T23:44:17.613Z,62.10
2018-05-17T23:46:45.106Z,55.33
2018-05-17T23:49:12.620Z,60.07
2018-05-17T23:51:40.130Z,60.83
2018-05-17T23:54:07.635Z,55.47
2018-05-17T23:56:35.124Z,66.50
2018-05-17T23:59:02.642Z,75.03
